Aviation Digital Data Service (ADDS)

Output produced by METARs form (0747 UTC 18 February 2019)
found at http://www.aviationweather.gov/metar/data/
 
METAR text: OEKM 180700Z 21018KT CAVOK 19/11 Q1023 NOSIG
Conditions at: OEKM (KHAMIS MUSHAIT A, SA) observed 0700 UTC 18 February 2019
Temperature: 19.0°C (66°F)
Dewpoint: 11.0°C (52°F) [RH = 60%]
Pressure (altimeter): 30.21 inches Hg (1023.0 mb)
Winds: from the SSW (210 degrees) at 21 MPH (18 knots; 9.3 m/s)
Visibility: 6 or more miles (10+ km)
Ceiling: ceiling and visibility are OK
Clouds: unknown
Weather: no significant weather observed at this time

METAR text: OEKM 180600Z 19016KT CAVOK 18/11 Q1023 NOSIG
Conditions at: OEKM (KHAMIS MUSHAIT A, SA) observed 0600 UTC 18 February 2019
Temperature: 18.0°C (64°F)
Dewpoint: 11.0°C (52°F) [RH = 64%]
Pressure (altimeter): 30.21 inches Hg (1023.0 mb)
Winds: from the S (190 degrees) at 18 MPH (16 knots; 8.2 m/s)
Visibility: 6 or more miles (10+ km)
Ceiling: ceiling and visibility are OK
Clouds: unknown
Weather: no significant weather observed at this time

METAR text: OEKM 180500Z 20012KT CAVOK 16/12 Q1023 NOSIG
Conditions at: OEKM (KHAMIS MUSHAIT A, SA) observed 0500 UTC 18 February 2019
Temperature: 16.0°C (61°F)
Dewpoint: 12.0°C (54°F) [RH = 77%]
Pressure (altimeter): 30.21 inches Hg (1023.0 mb)
Winds: from the SSW (200 degrees) at 14 MPH (12 knots; 6.2 m/s)
Visibility: 6 or more miles (10+ km)
Ceiling: ceiling and visibility are OK
Clouds: unknown
Weather: no significant weather observed at this time

METAR text: OEKM 180400Z 19005KT CAVOK 14/11 Q1022 NOSIG
Conditions at: OEKM (KHAMIS MUSHAIT A, SA) observed 0400 UTC 18 February 2019
Temperature: 14.0°C (57°F)
Dewpoint: 11.0°C (52°F) [RH = 82%]
Pressure (altimeter): 30.18 inches Hg (1022.0 mb)
Winds: from the S (190 degrees) at 6 MPH (5 knots; 2.6 m/s)
Visibility: 6 or more miles (10+ km)
Ceiling: ceiling and visibility are OK
Clouds: unknown
Weather: no significant weather observed at this time

METAR text: OEKM 180300Z 21010KT CAVOK 14/12 Q1022 NOSIG
Conditions at: OEKM (KHAMIS MUSHAIT A, SA) observed 0300 UTC 18 February 2019
Temperature: 14.0°C (57°F)
Dewpoint: 12.0°C (54°F) [RH = 88%]
Pressure (altimeter): 30.18 inches Hg (1022.0 mb)
Winds: from the SSW (210 degrees) at 12 MPH (10 knots; 5.1 m/s)
Visibility: 6 or more miles (10+ km)
Ceiling: ceiling and visibility are OK
Clouds: unknown
Weather: no significant weather observed at this time

METAR text: OEKM 180200Z 21008KT CAVOK 14/12 Q1021 NOSIG
Conditions at: OEKM (KHAMIS MUSHAIT A, SA) observed 0200 UTC 18 February 2019
Temperature: 14.0°C (57°F)
Dewpoint: 12.0°C (54°F) [RH = 88%]
Pressure (altimeter): 30.15 inches Hg (1021.0 mb)
Winds: from the SSW (210 degrees) at 9 MPH (8 knots; 4.1 m/s)
Visibility: 6 or more miles (10+ km)
Ceiling: ceiling and visibility are OK
Clouds: unknown
Weather: no significant weather observed at this time

METAR text: OEKM 180100Z 21010KT CAVOK 14/12 Q1021 NOSIG
Conditions at: OEKM (KHAMIS MUSHAIT A, SA) observed 0100 UTC 18 February 2019
Temperature: 14.0°C (57°F)
Dewpoint: 12.0°C (54°F) [RH = 88%]
Pressure (altimeter): 30.15 inches Hg (1021.0 mb)
Winds: from the SSW (210 degrees) at 12 MPH (10 knots; 5.1 m/s)
Visibility: 6 or more miles (10+ km)
Ceiling: ceiling and visibility are OK
Clouds: unknown
Weather: no significant weather observed at this time

METAR text: OEKM 180000Z 21012KT CAVOK 15/12 Q1022 NOSIG
Conditions at: OEKM (KHAMIS MUSHAIT A, SA) observed 0000 UTC 18 February 2019
Temperature: 15.0°C (59°F)
Dewpoint: 12.0°C (54°F) [RH = 82%]
Pressure (altimeter): 30.18 inches Hg (1022.0 mb)
Winds: from the SSW (210 degrees) at 14 MPH (12 knots; 6.2 m/s)
Visibility: 6 or more miles (10+ km)
Ceiling: ceiling and visibility are OK
Clouds: unknown
Weather: no significant weather observed at this time

METAR text: OEKM 172300Z 19009KT CAVOK 15/12 Q1022 NOSIG
Conditions at: OEKM (KHAMIS MUSHAIT A, SA) observed 2300 UTC 17 February 2019
Temperature: 15.0°C (59°F)
Dewpoint: 12.0°C (54°F) [RH = 82%]
Pressure (altimeter): 30.18 inches Hg (1022.0 mb)
Winds: from the S (190 degrees) at 10 MPH (9 knots; 4.6 m/s)
Visibility: 6 or more miles (10+ km)
Ceiling: ceiling and visibility are OK
Clouds: unknown
Weather: no significant weather observed at this time

METAR text: OEKM 172200Z 19009KT CAVOK 15/11 Q1023 NOSIG
Conditions at: OEKM (KHAMIS MUSHAIT A, SA) observed 2200 UTC 17 February 2019
Temperature: 15.0°C (59°F)
Dewpoint: 11.0°C (52°F) [RH = 77%]
Pressure (altimeter): 30.21 inches Hg (1023.0 mb)
Winds: from the S (190 degrees) at 10 MPH (9 knots; 4.6 m/s)
Visibility: 6 or more miles (10+ km)
Ceiling: ceiling and visibility are OK
Clouds: unknown
Weather: no significant weather observed at this time

METAR text: OEKM 172100Z 19008KT CAVOK 15/12 Q1024 NOSIG
Conditions at: OEKM (KHAMIS MUSHAIT A, SA) observed 2100 UTC 17 February 2019
Temperature: 15.0°C (59°F)
Dewpoint: 12.0°C (54°F) [RH = 82%]
Pressure (altimeter): 30.24 inches Hg (1024.0 mb)
Winds: from the S (190 degrees) at 9 MPH (8 knots; 4.1 m/s)
Visibility: 6 or more miles (10+ km)
Ceiling: ceiling and visibility are OK
Clouds: unknown
Weather: no significant weather observed at this time

METAR text: OEKM 172000Z 00000KT CAVOK 15/12 Q1025 NOSIG
Conditions at: OEKM (KHAMIS MUSHAIT A, SA) observed 2000 UTC 17 February 2019
Temperature: 15.0°C (59°F)
Dewpoint: 12.0°C (54°F) [RH = 82%]
Pressure (altimeter): 30.27 inches Hg (1025.0 mb)
Winds: calm
Visibility: 6 or more miles (10+ km)
Ceiling: ceiling and visibility are OK
Clouds: unknown
Weather: no significant weather observed at this time

METAR text: OEKM 171900Z 00000KT CAVOK 16/13 Q1025 NOSIG
Conditions at: OEKM (KHAMIS MUSHAIT A, SA) observed 1900 UTC 17 February 2019
Temperature: 16.0°C (61°F)
Dewpoint: 13.0°C (55°F) [RH = 82%]
Pressure (altimeter): 30.27 inches Hg (1025.0 mb)
Winds: calm
Visibility: 6 or more miles (10+ km)
Ceiling: ceiling and visibility are OK
Clouds: unknown
Weather: no significant weather observed at this time

METAR text: OEKM 171800Z 00000KT CAVOK 17/13 Q1025 NOSIG
Conditions at: OEKM (KHAMIS MUSHAIT A, SA) observed 1800 UTC 17 February 2019
Temperature: 17.0°C (63°F)
Dewpoint: 13.0°C (55°F) [RH = 77%]
Pressure (altimeter): 30.27 inches Hg (1025.0 mb)
Winds: calm
Visibility: 6 or more miles (10+ km)
Ceiling: ceiling and visibility are OK
Clouds: unknown
Weather: no significant weather observed at this time

METAR text: OEKM 171700Z 21005KT CAVOK 17/12 Q1025 NOSIG
Conditions at: OEKM (KHAMIS MUSHAIT A, SA) observed 1700 UTC 17 February 2019
Temperature: 17.0°C (63°F)
Dewpoint: 12.0°C (54°F) [RH = 72%]
Pressure (altimeter): 30.27 inches Hg (1025.0 mb)
Winds: from the SSW (210 degrees) at 6 MPH (5 knots; 2.6 m/s)
Visibility: 6 or more miles (10+ km)
Ceiling: ceiling and visibility are OK
Clouds: unknown
Weather: no significant weather observed at this time

METAR text: OEKM 171600Z 21008KT CAVOK 18/12 Q1024 NOSIG
Conditions at: OEKM (KHAMIS MUSHAIT A, SA) observed 1600 UTC 17 February 2019
Temperature: 18.0°C (64°F)
Dewpoint: 12.0°C (54°F) [RH = 68%]
Pressure (altimeter): 30.24 inches Hg (1024.0 mb)
Winds: from the SSW (210 degrees) at 9 MPH (8 knots; 4.1 m/s)
Visibility: 6 or more miles (10+ km)
Ceiling: ceiling and visibility are OK
Clouds: unknown
Weather: no significant weather observed at this time

METAR text: OEKM 171500Z 21010KT 9999 FEW022 17/11 Q1024 NOSIG
Conditions at: OEKM (KHAMIS MUSHAIT A, SA) observed 1500 UTC 17 February 2019
Temperature: 17.0°C (63°F)
Dewpoint: 11.0°C (52°F) [RH = 68%]
Pressure (altimeter): 30.24 inches Hg (1024.0 mb)
Winds: from the SSW (210 degrees) at 12 MPH (10 knots; 5.1 m/s)
Visibility: 6 or more miles (10+ km)
Ceiling: at least 12,000 feet AGL
Clouds: few clouds at 2200 feet AGL
Weather: no significant weather observed at this time

METAR text: OEKM 171400Z 21010KT 9999 FEW022 21/11 Q1023 NOSIG
Conditions at: OEKM (KHAMIS MUSHAIT A, SA) observed 1400 UTC 17 February 2019
Temperature: 21.0°C (70°F)
Dewpoint: 11.0°C (52°F) [RH = 53%]
Pressure (altimeter): 30.21 inches Hg (1023.0 mb)
Winds: from the SSW (210 degrees) at 12 MPH (10 knots; 5.1 m/s)
Visibility: 6 or more miles (10+ km)
Ceiling: at least 12,000 feet AGL
Clouds: few clouds at 2200 feet AGL
Weather: no significant weather observed at this time

METAR text: OEKM 171300Z 21008KT 9999 FEW022 22/11 Q1023 NOSIG
Conditions at: OEKM (KHAMIS MUSHAIT A, SA) observed 1300 UTC 17 February 2019
Temperature: 22.0°C (72°F)
Dewpoint: 11.0°C (52°F) [RH = 50%]
Pressure (altimeter): 30.21 inches Hg (1023.0 mb)
Winds: from the SSW (210 degrees) at 9 MPH (8 knots; 4.1 m/s)
Visibility: 6 or more miles (10+ km)
Ceiling: at least 12,000 feet AGL
Clouds: few clouds at 2200 feet AGL
Weather: no significant weather observed at this time

METAR text: OEKM 171200Z 23012KT 9999 FEW022 22/11 Q1024 NOSIG
Conditions at: OEKM (KHAMIS MUSHAIT A, SA) observed 1200 UTC 17 February 2019
Temperature: 22.0°C (72°F)
Dewpoint: 11.0°C (52°F) [RH = 50%]
Pressure (altimeter): 30.24 inches Hg (1024.0 mb)
Winds: from the SW (230 degrees) at 14 MPH (12 knots; 6.2 m/s)
Visibility: 6 or more miles (10+ km)
Ceiling: at least 12,000 feet AGL
Clouds: few clouds at 2200 feet AGL
Weather: no significant weather observed at this time

METAR text: OEKM 171100Z 22010KT 9999 FEW022 21/10 Q1024 NOSIG
Conditions at: OEKM (KHAMIS MUSHAIT A, SA) observed 1100 UTC 17 February 2019
Temperature: 21.0°C (70°F)
Dewpoint: 10.0°C (50°F) [RH = 49%]
Pressure (altimeter): 30.24 inches Hg (1024.0 mb)
Winds: from the SW (220 degrees) at 12 MPH (10 knots; 5.1 m/s)
Visibility: 6 or more miles (10+ km)
Ceiling: at least 12,000 feet AGL
Clouds: few clouds at 2200 feet AGL
Weather: no significant weather observed at this time

METAR text: OEKM 171000Z 24012KT 9999 FEW022 21/10 Q1025 NOSIG
Conditions at: OEKM (KHAMIS MUSHAIT A, SA) observed 1000 UTC 17 February 2019
Temperature: 21.0°C (70°F)
Dewpoint: 10.0°C (50°F) [RH = 49%]
Pressure (altimeter): 30.27 inches Hg (1025.0 mb)
Winds: from the WSW (240 degrees) at 14 MPH (12 knots; 6.2 m/s)
Visibility: 6 or more miles (10+ km)
Ceiling: at least 12,000 feet AGL
Clouds: few clouds at 2200 feet AGL
Weather: no significant weather observed at this time

METAR text: OEKM 170900Z 21010KT 9999 SCT022 20/12 Q1025 NOSIG
Conditions at: OEKM (KHAMIS MUSHAIT A, SA) observed 0900 UTC 17 February 2019
Temperature: 20.0°C (68°F)
Dewpoint: 12.0°C (54°F) [RH = 60%]
Pressure (altimeter): 30.27 inches Hg (1025.0 mb)
Winds: from the SSW (210 degrees) at 12 MPH (10 knots; 5.1 m/s)
Visibility: 6 or more miles (10+ km)
Ceiling: at least 12,000 feet AGL
Clouds: scattered clouds at 2200 feet AGL
Weather: no significant weather observed at this time

METAR text: OEKM 170800Z 22010KT 9999 SCT022 20/11 Q1026 NOSIG
Conditions at: OEKM (KHAMIS MUSHAIT A, SA) observed 0800 UTC 17 February 2019
Temperature: 20.0°C (68°F)
Dewpoint: 11.0°C (52°F) [RH = 56%]
Pressure (altimeter): 30.30 inches Hg (1026.0 mb)
Winds: from the SW (220 degrees) at 12 MPH (10 knots; 5.1 m/s)
Visibility: 6 or more miles (10+ km)
Ceiling: at least 12,000 feet AGL
Clouds: scattered clouds at 2200 feet AGL
Weather: no significant weather observed at this time

METAR text: OEKM 170700Z 20008KT 9999 SCT022 19/11 Q1027 NOSIG
Conditions at: OEKM (KHAMIS MUSHAIT A, SA) observed 0700 UTC 17 February 2019
Temperature: 19.0°C (66°F)
Dewpoint: 11.0°C (52°F) [RH = 60%]
Pressure (altimeter): 30.32 inches Hg (1027.0 mb)
Winds: from the SSW (200 degrees) at 9 MPH (8 knots; 4.1 m/s)
Visibility: 6 or more miles (10+ km)
Ceiling: at least 12,000 feet AGL
Clouds: scattered clouds at 2200 feet AGL
Weather: no significant weather observed at this time

METAR text: OEKM 170600Z 21006KT 9999 SCT022 18/10 Q1027 NOSIG
Conditions at: OEKM (KHAMIS MUSHAIT A, SA) observed 0600 UTC 17 February 2019
Temperature: 18.0°C (64°F)
Dewpoint: 10.0°C (50°F) [RH = 59%]
Pressure (altimeter): 30.32 inches Hg (1027.0 mb)
Winds: from the SSW (210 degrees) at 7 MPH (6 knots; 3.1 m/s)
Visibility: 6 or more miles (10+ km)
Ceiling: at least 12,000 feet AGL
Clouds: scattered clouds at 2200 feet AGL
Weather: no significant weather observed at this time

METAR text: OEKM 170500Z 22006KT 9999 SCT022 17/09 Q1026 NOSIG
Conditions at: OEKM (KHAMIS MUSHAIT A, SA) observed 0500 UTC 17 February 2019
Temperature: 17.0°C (63°F)
Dewpoint: 9.0°C (48°F) [RH = 59%]
Pressure (altimeter): 30.30 inches Hg (1026.0 mb)
Winds: from the SW (220 degrees) at 7 MPH (6 knots; 3.1 m/s)
Visibility: 6 or more miles (10+ km)
Ceiling: at least 12,000 feet AGL
Clouds: scattered clouds at 2200 feet AGL
Weather: no significant weather observed at this time

METAR text: OEKM 170400Z 22006KT 9999 SCT025 12/10 Q1025 NOSIG
Conditions at: OEKM (KHAMIS MUSHAIT A, SA) observed 0400 UTC 17 February 2019
Temperature: 12.0°C (54°F)
Dewpoint: 10.0°C (50°F) [RH = 88%]
Pressure (altimeter): 30.27 inches Hg (1025.0 mb)
Winds: from the SW (220 degrees) at 7 MPH (6 knots; 3.1 m/s)
Visibility: 6 or more miles (10+ km)
Ceiling: at least 12,000 feet AGL
Clouds: scattered clouds at 2500 feet AGL
Weather: no significant weather observed at this time

METAR text: OEKM 170300Z 22006KT 9999 FEW025 13/11 Q1025 NOSIG
Conditions at: OEKM (KHAMIS MUSHAIT A, SA) observed 0300 UTC 17 February 2019
Temperature: 13.0°C (55°F)
Dewpoint: 11.0°C (52°F) [RH = 88%]
Pressure (altimeter): 30.27 inches Hg (1025.0 mb)
Winds: from the SW (220 degrees) at 7 MPH (6 knots; 3.1 m/s)
Visibility: 6 or more miles (10+ km)
Ceiling: at least 12,000 feet AGL
Clouds: few clouds at 2500 feet AGL
Weather: no significant weather observed at this time

METAR text: OEKM 170200Z 20004KT 9999 FEW025 13/11 Q1025 NOSIG
Conditions at: OEKM (KHAMIS MUSHAIT A, SA) observed 0200 UTC 17 February 2019
Temperature: 13.0°C (55°F)
Dewpoint: 11.0°C (52°F) [RH = 88%]
Pressure (altimeter): 30.27 inches Hg (1025.0 mb)
Winds: from the SSW (200 degrees) at 5 MPH (4 knots; 2.1 m/s)
Visibility: 6 or more miles (10+ km)
Ceiling: at least 12,000 feet AGL
Clouds: few clouds at 2500 feet AGL
Weather: no significant weather observed at this time

METAR text: OEKM 170100Z 19006KT CAVOK 14/11 Q1025 NOSIG
Conditions at: OEKM (KHAMIS MUSHAIT A, SA) observed 0100 UTC 17 February 2019
Temperature: 14.0°C (57°F)
Dewpoint: 11.0°C (52°F) [RH = 82%]
Pressure (altimeter): 30.27 inches Hg (1025.0 mb)
Winds: from the S (190 degrees) at 7 MPH (6 knots; 3.1 m/s)
Visibility: 6 or more miles (10+ km)
Ceiling: ceiling and visibility are OK
Clouds: unknown
Weather: no significant weather observed at this time

METAR text: OEKM 170000Z 21006KT CAVOK 14/12 Q1025 NOSIG
Conditions at: OEKM (KHAMIS MUSHAIT A, SA) observed 0000 UTC 17 February 2019
Temperature: 14.0°C (57°F)
Dewpoint: 12.0°C (54°F) [RH = 88%]
Pressure (altimeter): 30.27 inches Hg (1025.0 mb)
Winds: from the SSW (210 degrees) at 7 MPH (6 knots; 3.1 m/s)
Visibility: 6 or more miles (10+ km)
Ceiling: ceiling and visibility are OK
Clouds: unknown
Weather: no significant weather observed at this time

METAR text: OEKM 162300Z 21007KT CAVOK 15/12 Q1025 NOSIG
Conditions at: OEKM (KHAMIS MUSHAIT A, SA) observed 2300 UTC 16 February 2019
Temperature: 15.0°C (59°F)
Dewpoint: 12.0°C (54°F) [RH = 82%]
Pressure (altimeter): 30.27 inches Hg (1025.0 mb)
Winds: from the SSW (210 degrees) at 8 MPH (7 knots; 3.6 m/s)
Visibility: 6 or more miles (10+ km)
Ceiling: ceiling and visibility are OK
Clouds: unknown
Weather: no significant weather observed at this time

METAR text: OEKM 162200Z 18004KT CAVOK 15/12 Q1026 NOSIG
Conditions at: OEKM (KHAMIS MUSHAIT A, SA) observed 2200 UTC 16 February 2019
Temperature: 15.0°C (59°F)
Dewpoint: 12.0°C (54°F) [RH = 82%]
Pressure (altimeter): 30.30 inches Hg (1026.0 mb)
Winds: from the S (180 degrees) at 5 MPH (4 knots; 2.1 m/s)
Visibility: 6 or more miles (10+ km)
Ceiling: ceiling and visibility are OK
Clouds: unknown
Weather: no significant weather observed at this time

METAR text: OEKM 162100Z 21004KT CAVOK 16/14 Q1026 NOSIG
Conditions at: OEKM (KHAMIS MUSHAIT A, SA) observed 2100 UTC 16 February 2019
Temperature: 16.0°C (61°F)
Dewpoint: 14.0°C (57°F) [RH = 88%]
Pressure (altimeter): 30.30 inches Hg (1026.0 mb)
Winds: from the SSW (210 degrees) at 5 MPH (4 knots; 2.1 m/s)
Visibility: 6 or more miles (10+ km)
Ceiling: ceiling and visibility are OK
Clouds: unknown
Weather: no significant weather observed at this time

METAR text: OEKM 162000Z 22006KT CAVOK 17/12 Q1027 NOSIG
Conditions at: OEKM (KHAMIS MUSHAIT A, SA) observed 2000 UTC 16 February 2019
Temperature: 17.0°C (63°F)
Dewpoint: 12.0°C (54°F) [RH = 72%]
Pressure (altimeter): 30.32 inches Hg (1027.0 mb)
Winds: from the SW (220 degrees) at 7 MPH (6 knots; 3.1 m/s)
Visibility: 6 or more miles (10+ km)
Ceiling: ceiling and visibility are OK
Clouds: unknown
Weather: no significant weather observed at this time

Forecast for: OEKM (KHAMIS MUSHAIT A, SA)
Text: TAF OEKM 180500Z 1806/1815 21020KT 9999 SCT020
Forecast period: 0600 to 1500 UTC 18 February 2019
Forecast type: FROM: standard forecast or significant change
Winds: from the SSW (210 degrees) at 23 MPH (20 knots; 10.3 m/s)
Visibility: 6 or more miles 10+ km)
Ceiling: at least 12,000 feet AGL
Clouds: scattered clouds at 2000 feet AGL
Weather: no significant weather forecast for this period
Text: TEMPO 1810/1815 FEW025CB
Forecast period: 1000 to 1500 UTC 18 February 2019
Forecast type: TEMPORARY: The following changes expected for less than half the time period
Visibility: missing
Ceiling: at least 12,000 feet AGL
Clouds: few clouds at 2500 feet AGL
Weather: no significant weather forecast for this period